Terminal Aerodrome Forecast
Issued by NWS Austin/San Antonio, TX

Home | Current Version | Previous Version | Text Only | Print | Product List | Glossary On
Versions: 1 2 3 4 5 6 7 8 9 10 11 12 13 14 15 16 17 18 19 20 21 22 23 24 25 26 27 28 29 30 31
742
FTUS44 KEWX 241443 CCB
TAFAUS
TAF COR
KAUS 241443Z 2415/2518 16007KT P6SM FEW015 BKN023 BKN045
     FM241700 15010KT P6SM BKN035
     FM242200 15012KT P6SM BKN050
     FM250300 15010KT P6SM BKN015=

USA.gov is the U.S. government's official web portal to all federal, state and local government web resources and services.